Hollister, Wisconsin
Current Conditions -  °F | °C
As of 6:35 AM on Monday 22 Dec 2014 (Local Time) from KAIG Reporting Station
Haze Haze  
Wind Chill: -6°   Ceiling: 500
Heat Index: -1°   Visibility: 3mi
Dew Point: -1°   Wind: 13mph
Humidity: 98%   Direction: 150°SSE
Pressure: 29.84"   Gusts: NA
Location:  45.261°N, 88.731°W
Report Text: KAIG 221235Z AUTO 15011KT 3SM BR OVC005 M01/M01 A2984 RMK AO2 T10081011
Loading
Personal Weather Stations






























Interactive Weather Map New forecast layout! Learn more

10-Day Weather Forecast

Advertisements
Track Severe Weather on mobile